sensor_id;sensor_type;location;lat;lon;timestamp;temperature;humidity
59961;DHT22;55902;-37.980;-63.602;2022-08-14T00:01:09;16.50;82.00
59961;DHT22;55902;-37.980;-63.602;2022-08-14T00:03:41;16.50;83.20
59961;DHT22;55902;-37.980;-63.602;2022-08-14T00:06:09;16.40;83.40
59961;DHT22;55902;-37.980;-63.602;2022-08-14T00:08:40;16.20;84.50
59961;DHT22;55902;-37.980;-63.602;2022-08-14T00:11:07;16.20;84.50
59961;DHT22;55902;-37.980;-63.602;2022-08-14T00:13:34;16.20;84.90
59961;DHT22;55902;-37.980;-63.602;2022-08-14T00:16:06;16.10;85.40
59961;DHT22;55902;-37.980;-63.602;2022-08-14T00:18:33;16.00;86.60
59961;DHT22;55902;-37.980;-63.602;2022-08-14T00:21:05;16.00;86.70
59961;DHT22;55902;-37.980;-63.602;2022-08-14T00:23:32;16.10;86.90
59961;DHT22;55902;-37.980;-63.602;2022-08-14T00:25:59;16.10;87.60
59961;DHT22;55902;-37.980;-63.602;2022-08-14T00:28:26;16.10;88.00
59961;DHT22;55902;-37.980;-63.602;2022-08-14T00:30:57;16.00;88.90
59961;DHT22;55902;-37.980;-63.602;2022-08-14T00:33:26;16.10;88.50
59961;DHT22;55902;-37.980;-63.602;2022-08-14T00:35:57;16.00;89.40
59961;DHT22;55902;-37.980;-63.602;2022-08-14T00:38:27;16.00;89.90
59961;DHT22;55902;-37.980;-63.602;2022-08-14T00:40:54;15.90;90.20
59961;DHT22;55902;-37.980;-63.602;2022-08-14T00:43:25;15.90;90.20
59961;DHT22;55902;-37.980;-63.602;2022-08-14T00:45:52;15.90;90.20
59961;DHT22;55902;-37.980;-63.602;2022-08-14T00:48:22;15.80;90.40
59961;DHT22;55902;-37.980;-63.602;2022-08-14T00:50:49;15.80;90.50
59961;DHT22;55902;-37.980;-63.602;2022-08-14T00:53:19;15.70;90.70
59961;DHT22;55902;-37.980;-63.602;2022-08-14T00:55:49;15.50;91.50
59961;DHT22;55902;-37.980;-63.602;2022-08-14T00:58:17;15.50;91.50
59961;DHT22;55902;-37.980;-63.602;2022-08-14T01:01:00;15.50;91.60
59961;DHT22;55902;-37.980;-63.602;2022-08-14T01:03:28;15.50;91.60
59961;DHT22;55902;-37.980;-63.602;2022-08-14T01:06:00;15.60;91.50
59961;DHT22;55902;-37.980;-63.602;2022-08-14T01:08:28;15.70;91.20
59961;DHT22;55902;-37.980;-63.602;2022-08-14T01:10:57;15.80;91.50
59961;DHT22;55902;-37.980;-63.602;2022-08-14T01:13:34;15.80;91.90
59961;DHT22;55902;-37.980;-63.602;2022-08-14T01:16:10;15.90;91.20
59961;DHT22;55902;-37.980;-63.602;2022-08-14T01:18:41;15.90;91.30
59961;DHT22;55902;-37.980;-63.602;2022-08-14T01:21:34;15.90;91.20
59961;DHT22;55902;-37.980;-63.602;2022-08-14T01:24:03;16.00;91.10
59961;DHT22;55902;-37.980;-63.602;2022-08-14T01:26:33;15.90;91.30
59961;DHT22;55902;-37.980;-63.602;2022-08-14T01:29:04;15.90;91.60
59961;DHT22;55902;-37.980;-63.602;2022-08-14T01:31:36;15.90;91.60
59961;DHT22;55902;-37.980;-63.602;2022-08-14T01:34:13;15.80;91.80
59961;DHT22;55902;-37.980;-63.602;2022-08-14T01:36:40;15.70;92.10
59961;DHT22;55902;-37.980;-63.602;2022-08-14T01:39:14;15.80;92.00
59961;DHT22;55902;-37.980;-63.602;2022-08-14T01:41:45;15.80;92.00
59961;DHT22;55902;-37.980;-63.602;2022-08-14T01:44:25;15.80;92.30
59961;DHT22;55902;-37.980;-63.602;2022-08-14T01:46:56;15.70;92.20
59961;DHT22;55902;-37.980;-63.602;2022-08-14T01:49:26;15.70;92.30
59961;DHT22;55902;-37.980;-63.602;2022-08-14T01:51:57;15.80;92.20
59961;DHT22;55902;-37.980;-63.602;2022-08-14T01:54:24;15.80;92.10
59961;DHT22;55902;-37.980;-63.602;2022-08-14T01:56:55;15.80;92.20
59961;DHT22;55902;-37.980;-63.602;2022-08-14T01:59:30;15.80;92.30
59961;DHT22;55902;-37.980;-63.602;2022-08-14T02:02:00;15.90;92.00
59961;DHT22;55902;-37.980;-63.602;2022-08-14T02:04:34;16.00;91.80
59961;DHT22;55902;-37.980;-63.602;2022-08-14T02:07:02;16.00;91.80
59961;DHT22;55902;-37.980;-63.602;2022-08-14T02:09:32;15.90;92.00
59961;DHT22;55902;-37.980;-63.602;2022-08-14T02:12:05;15.80;92.10
59961;DHT22;55902;-37.980;-63.602;2022-08-14T02:14:32;15.70;92.20
59961;DHT22;55902;-37.980;-63.602;2022-08-14T02:17:02;15.80;92.20
59961;DHT22;55902;-37.980;-63.602;2022-08-14T02:19:30;15.90;91.90
59961;DHT22;55902;-37.980;-63.602;2022-08-14T02:22:01;16.00;91.90
59961;DHT22;55902;-37.980;-63.602;2022-08-14T02:24:31;15.90;92.00
59961;DHT22;55902;-37.980;-63.602;2022-08-14T02:26:59;15.90;92.10
59961;DHT22;55902;-37.980;-63.602;2022-08-14T02:29:30;15.90;92.00
59961;DHT22;55902;-37.980;-63.602;2022-08-14T02:31:59;15.90;92.10
59961;DHT22;55902;-37.980;-63.602;2022-08-14T02:34:32;15.90;92.10
59961;DHT22;55902;-37.980;-63.602;2022-08-14T02:37:08;15.90;92.00
59961;DHT22;55902;-37.980;-63.602;2022-08-14T02:39:39;15.80;92.20
59961;DHT22;55902;-37.980;-63.602;2022-08-14T02:42:08;15.80;92.30
59961;DHT22;55902;-37.980;-63.602;2022-08-14T02:44:35;15.80;92.30
59961;DHT22;55902;-37.980;-63.602;2022-08-14T02:47:08;15.70;92.50
59961;DHT22;55902;-37.980;-63.602;2022-08-14T02:49:37;15.80;92.40
59961;DHT22;55902;-37.980;-63.602;2022-08-14T02:52:08;15.80;92.40
59961;DHT22;55902;-37.980;-63.602;2022-08-14T02:54:35;15.80;92.40
59961;DHT22;55902;-37.980;-63.602;2022-08-14T02:57:05;15.90;92.30
59961;DHT22;55902;-37.980;-63.602;2022-08-14T02:59:35;15.80;92.40
59961;DHT22;55902;-37.980;-63.602;2022-08-14T03:02:05;15.90;92.50
59961;DHT22;55902;-37.980;-63.602;2022-08-14T03:04:37;15.80;92.50
59961;DHT22;55902;-37.980;-63.602;2022-08-14T03:07:04;15.80;92.50
59961;DHT22;55902;-37.980;-63.602;2022-08-14T03:09:31;15.80;92.40
59961;DHT22;55902;-37.980;-63.602;2022-08-14T03:11:58;15.90;92.40
59961;DHT22;55902;-37.980;-63.602;2022-08-14T03:14:31;15.70;92.80
59961;DHT22;55902;-37.980;-63.602;2022-08-14T03:17:03;15.60;93.00
59961;DHT22;55902;-37.980;-63.602;2022-08-14T03:29:39;15.50;93.30
59961;DHT22;55902;-37.980;-63.602;2022-08-14T03:32:08;15.40;93.60
59961;DHT22;55902;-37.980;-63.602;2022-08-14T03:34:36;15.40;93.70
59961;DHT22;55902;-37.980;-63.602;2022-08-14T03:37:03;15.40;93.50
59961;DHT22;55902;-37.980;-63.602;2022-08-14T03:39:31;15.40;93.60
59961;DHT22;55902;-37.980;-63.602;2022-08-14T03:41:58;15.50;93.60
59961;DHT22;55902;-37.980;-63.602;2022-08-14T03:44:25;15.50;93.60
59961;DHT22;55902;-37.980;-63.602;2022-08-14T03:46:52;15.40;93.80
59961;DHT22;55902;-37.980;-63.602;2022-08-14T03:49:23;15.40;93.80
59961;DHT22;55902;-37.980;-63.602;2022-08-14T03:51:50;15.50;93.70
59961;DHT22;55902;-37.980;-63.602;2022-08-14T03:54:20;15.50;93.80
59961;DHT22;55902;-37.980;-63.602;2022-08-14T03:56:51;15.50;93.80
59961;DHT22;55902;-37.980;-63.602;2022-08-14T03:59:19;15.40;94.10
59961;DHT22;55902;-37.980;-63.602;2022-08-14T04:01:46;15.40;94.10
59961;DHT22;55902;-37.980;-63.602;2022-08-14T04:04:14;15.40;94.20
59961;DHT22;55902;-37.980;-63.602;2022-08-14T04:06:43;15.40;94.30
59961;DHT22;55902;-37.980;-63.602;2022-08-14T04:09:10;15.40;94.40
59961;DHT22;55902;-37.980;-63.602;2022-08-14T04:11:37;15.30;94.60
59961;DHT22;55902;-37.980;-63.602;2022-08-14T04:14:05;15.30;94.50
59961;DHT22;55902;-37.980;-63.602;2022-08-14T04:16:36;15.30;94.70
59961;DHT22;55902;-37.980;-63.602;2022-08-14T04:19:03;15.20;94.90
59961;DHT22;55902;-37.980;-63.602;2022-08-14T04:21:34;15.20;95.00
59961;DHT22;55902;-37.980;-63.602;2022-08-14T04:24:01;15.20;95.20
59961;DHT22;55902;-37.980;-63.602;2022-08-14T04:26:29;15.20;95.10
59961;DHT22;55902;-37.980;-63.602;2022-08-14T04:28:56;15.20;95.20
59961;DHT22;55902;-37.980;-63.602;2022-08-14T04:31:24;15.10;95.40
59961;DHT22;55902;-37.980;-63.602;2022-08-14T04:33:54;15.00;95.70
59961;DHT22;55902;-37.980;-63.602;2022-08-14T04:36:22;15.00;95.60
59961;DHT22;55902;-37.980;-63.602;2022-08-14T04:38:53;15.00;95.80
59961;DHT22;55902;-37.980;-63.602;2022-08-14T04:41:38;15.00;95.80
59961;DHT22;55902;-37.980;-63.602;2022-08-14T04:44:26;15.10;95.80
59961;DHT22;55902;-37.980;-63.602;2022-08-14T04:46:57;15.00;95.80
59961;DHT22;55902;-37.980;-63.602;2022-08-14T04:49:42;15.10;95.60
59961;DHT22;55902;-37.980;-63.602;2022-08-14T04:52:09;15.20;95.70
59961;DHT22;55902;-37.980;-63.602;2022-08-14T04:54:39;15.10;95.70
59961;DHT22;55902;-37.980;-63.602;2022-08-14T04:57:05;15.20;95.60
59961;DHT22;55902;-37.980;-63.602;2022-08-14T04:59:36;15.20;95.80
59961;DHT22;55902;-37.980;-63.602;2022-08-14T05:02:06;15.30;95.50
59961;DHT22;55902;-37.980;-63.602;2022-08-14T05:04:33;15.30;95.30
59961;DHT22;55902;-37.980;-63.602;2022-08-14T05:07:01;15.40;95.20
59961;DHT22;55902;-37.980;-63.602;2022-08-14T05:09:28;15.40;95.10
59961;DHT22;55902;-37.980;-63.602;2022-08-14T05:11:55;15.20;95.30
59961;DHT22;55902;-37.980;-63.602;2022-08-14T05:14:27;15.20;95.60
59961;DHT22;55902;-37.980;-63.602;2022-08-14T05:16:58;15.00;95.30
59961;DHT22;55902;-37.980;-63.602;2022-08-14T05:19:25;14.80;95.90
59961;DHT22;55902;-37.980;-63.602;2022-08-14T05:22:02;14.70;95.90
59961;DHT22;55902;-37.980;-63.602;2022-08-14T05:24:29;14.50;96.40
59961;DHT22;55902;-37.980;-63.602;2022-08-14T05:26:59;14.40;96.50
59961;DHT22;55902;-37.980;-63.602;2022-08-14T05:29:31;14.30;97.00
59961;DHT22;55902;-37.980;-63.602;2022-08-14T05:31:59;14.20;97.10
59961;DHT22;55902;-37.980;-63.602;2022-08-14T05:34:35;14.10;97.40
59961;DHT22;55902;-37.980;-63.602;2022-08-14T05:37:02;14.00;97.70
59961;DHT22;55902;-37.980;-63.602;2022-08-14T05:39:29;14.00;97.70
59961;DHT22;55902;-37.980;-63.602;2022-08-14T05:41:56;13.90;97.80
59961;DHT22;55902;-37.980;-63.602;2022-08-14T05:44:24;13.90;97.40
59961;DHT22;55902;-37.980;-63.602;2022-08-14T05:46:54;14.00;97.30
59961;DHT22;55902;-37.980;-63.602;2022-08-14T05:49:21;14.00;98.00
59961;DHT22;55902;-37.980;-63.602;2022-08-14T05:51:48;14.10;98.30
59961;DHT22;55902;-37.980;-63.602;2022-08-14T05:54:18;14.30;97.70
59961;DHT22;55902;-37.980;-63.602;2022-08-14T05:56:45;14.40;97.70
59961;DHT22;55902;-37.980;-63.602;2022-08-14T05:59:16;14.60;97.80
59961;DHT22;55902;-37.980;-63.602;2022-08-14T06:01:43;14.70;97.40
59961;DHT22;55902;-37.980;-63.602;2022-08-14T06:04:13;14.80;97.30
59961;DHT22;55902;-37.980;-63.602;2022-08-14T06:06:40;15.00;96.70
59961;DHT22;55902;-37.980;-63.602;2022-08-14T06:09:11;15.10;95.90
59961;DHT22;55902;-37.980;-63.602;2022-08-14T06:11:37;15.10;95.40
59961;DHT22;55902;-37.980;-63.602;2022-08-14T06:14:05;15.20;95.10
59961;DHT22;55902;-37.980;-63.602;2022-08-14T06:16:31;15.30;95.00
59961;DHT22;55902;-37.980;-63.602;2022-08-14T06:19:02;15.30;94.80
59961;DHT22;55902;-37.980;-63.602;2022-08-14T06:21:31;15.30;94.70
59961;DHT22;55902;-37.980;-63.602;2022-08-14T06:23:57;15.20;94.60
59961;DHT22;55902;-37.980;-63.602;2022-08-14T06:26:24;15.20;94.60
59961;DHT22;55902;-37.980;-63.602;2022-08-14T06:28:51;15.20;94.50
59961;DHT22;55902;-37.980;-63.602;2022-08-14T06:31:21;15.20;94.30
59961;DHT22;55902;-37.980;-63.602;2022-08-14T06:33:48;15.20;94.30
59961;DHT22;55902;-37.980;-63.602;2022-08-14T06:36:19;15.20;94.10
59961;DHT22;55902;-37.980;-63.602;2022-08-14T06:38:46;15.30;94.40
59961;DHT22;55902;-37.980;-63.602;2022-08-14T06:41:13;15.30;94.10
59961;DHT22;55902;-37.980;-63.602;2022-08-14T06:43:43;15.30;94.00
59961;DHT22;55902;-37.980;-63.602;2022-08-14T06:46:10;15.30;94.20
59961;DHT22;55902;-37.980;-63.602;2022-08-14T06:48:41;15.40;94.30
59961;DHT22;55902;-37.980;-63.602;2022-08-14T06:51:08;15.40;94.10
59961;DHT22;55902;-37.980;-63.602;2022-08-14T06:53:39;15.30;93.90
59961;DHT22;55902;-37.980;-63.602;2022-08-14T06:56:06;15.30;93.90
59961;DHT22;55902;-37.980;-63.602;2022-08-14T06:58:35;15.30;93.80
59961;DHT22;55902;-37.980;-63.602;2022-08-14T07:01:02;15.30;93.70
59961;DHT22;55902;-37.980;-63.602;2022-08-14T07:03:47;15.30;93.70
59961;DHT22;55902;-37.980;-63.602;2022-08-14T07:06:35;15.30;93.80
59961;DHT22;55902;-37.980;-63.602;2022-08-14T07:09:02;15.20;93.80
59961;DHT22;55902;-37.980;-63.602;2022-08-14T07:11:30;15.10;93.90
59961;DHT22;55902;-37.980;-63.602;2022-08-14T07:13:57;15.10;94.00
59961;DHT22;55902;-37.980;-63.602;2022-08-14T07:16:24;15.10;94.10
59961;DHT22;55902;-37.980;-63.602;2022-08-14T07:18:52;15.10;94.00
59961;DHT22;55902;-37.980;-63.602;2022-08-14T07:21:19;15.10;94.10
59961;DHT22;55902;-37.980;-63.602;2022-08-14T07:23:49;15.00;94.20
59961;DHT22;55902;-37.980;-63.602;2022-08-14T07:26:15;15.00;94.00
59961;DHT22;55902;-37.980;-63.602;2022-08-14T07:28:42;15.00;94.50
59961;DHT22;55902;-37.980;-63.602;2022-08-14T07:31:10;14.90;94.70
59961;DHT22;55902;-37.980;-63.602;2022-08-14T07:33:39;14.90;94.90
59961;DHT22;55902;-37.980;-63.602;2022-08-14T07:36:12;14.60;95.50
59961;DHT22;55902;-37.980;-63.602;2022-08-14T07:38:40;14.40;95.10
59961;DHT22;55902;-37.980;-63.602;2022-08-14T07:41:08;14.30;95.50
59961;DHT22;55902;-37.980;-63.602;2022-08-14T07:43:41;14.30;96.10
59961;DHT22;55902;-37.980;-63.602;2022-08-14T07:46:08;14.30;95.90
59961;DHT22;55902;-37.980;-63.602;2022-08-14T07:48:40;14.40;95.10
59961;DHT22;55902;-37.980;-63.602;2022-08-14T07:51:09;14.60;94.80
59961;DHT22;55902;-37.980;-63.602;2022-08-14T07:53:40;14.80;94.60
59961;DHT22;55902;-37.980;-63.602;2022-08-14T07:56:08;14.80;94.60
59961;DHT22;55902;-37.980;-63.602;2022-08-14T07:58:37;15.00;94.30
59961;DHT22;55902;-37.980;-63.602;2022-08-14T08:01:05;15.00;94.10
59961;DHT22;55902;-37.980;-63.602;2022-08-14T08:03:36;15.00;94.00
59961;DHT22;55902;-37.980;-63.602;2022-08-14T08:06:07;15.10;93.80
59961;DHT22;55902;-37.980;-63.602;2022-08-14T08:08:34;15.00;93.50
59961;DHT22;55902;-37.980;-63.602;2022-08-14T08:11:01;15.00;93.10
59961;DHT22;55902;-37.980;-63.602;2022-08-14T08:13:33;15.00;92.60
59961;DHT22;55902;-37.980;-63.602;2022-08-14T08:16:01;14.90;92.20
59961;DHT22;55902;-37.980;-63.602;2022-08-14T08:18:33;14.90;91.90
59961;DHT22;55902;-37.980;-63.602;2022-08-14T08:21:00;14.90;91.90
59961;DHT22;55902;-37.980;-63.602;2022-08-14T08:23:29;14.80;91.40
59961;DHT22;55902;-37.980;-63.602;2022-08-14T08:25:58;14.80;91.30
59961;DHT22;55902;-37.980;-63.602;2022-08-14T08:28:26;14.70;91.10
59961;DHT22;55902;-37.980;-63.602;2022-08-14T08:31:02;14.70;91.00
59961;DHT22;55902;-37.980;-63.602;2022-08-14T08:33:31;14.60;90.70
59961;DHT22;55902;-37.980;-63.602;2022-08-14T08:36:07;14.60;90.80
59961;DHT22;55902;-37.980;-63.602;2022-08-14T08:38:40;14.60;90.80
59961;DHT22;55902;-37.980;-63.602;2022-08-14T08:41:07;14.50;90.80
59961;DHT22;55902;-37.980;-63.602;2022-08-14T08:43:38;14.60;90.80
59961;DHT22;55902;-37.980;-63.602;2022-08-14T08:46:07;14.60;90.80
59961;DHT22;55902;-37.980;-63.602;2022-08-14T08:48:51;14.50;90.70
59961;DHT22;55902;-37.980;-63.602;2022-08-14T08:51:33;14.60;90.60
59961;DHT22;55902;-37.980;-63.602;2022-08-14T08:54:13;14.50;90.20
59961;DHT22;55902;-37.980;-63.602;2022-08-14T08:56:41;14.50;90.10
59961;DHT22;55902;-37.980;-63.602;2022-08-14T08:59:24;14.40;89.70
59961;DHT22;55902;-37.980;-63.602;2022-08-14T09:01:53;14.40;88.40
59961;DHT22;55902;-37.980;-63.602;2022-08-14T09:04:29;14.40;87.90
59961;DHT22;55902;-37.980;-63.602;2022-08-14T09:06:56;14.30;87.20
59961;DHT22;55902;-37.980;-63.602;2022-08-14T09:09:28;14.30;87.30
59961;DHT22;55902;-37.980;-63.602;2022-08-14T09:11:58;14.20;86.80
59961;DHT22;55902;-37.980;-63.602;2022-08-14T09:14:27;14.10;86.40
59961;DHT22;55902;-37.980;-63.602;2022-08-14T09:16:59;14.00;85.70
59961;DHT22;55902;-37.980;-63.602;2022-08-14T09:19:26;14.00;86.20
59961;DHT22;55902;-37.980;-63.602;2022-08-14T09:21:56;13.90;85.60
59961;DHT22;55902;-37.980;-63.602;2022-08-14T09:24:24;13.90;85.40
59961;DHT22;55902;-37.980;-63.602;2022-08-14T09:26:50;13.90;83.10
59961;DHT22;55902;-37.980;-63.602;2022-08-14T09:29:22;14.00;82.50
59961;DHT22;55902;-37.980;-63.602;2022-08-14T09:31:55;14.00;82.20
59961;DHT22;55902;-37.980;-63.602;2022-08-14T09:35:03;14.10;79.70
59961;DHT22;55902;-37.980;-63.602;2022-08-14T09:43:32;14.10;78.80
59961;DHT22;55902;-37.980;-63.602;2022-08-14T09:46:06;14.00;78.30
59961;DHT22;55902;-37.980;-63.602;2022-08-14T09:48:33;13.90;78.60
59961;DHT22;55902;-37.980;-63.602;2022-08-14T09:51:07;13.80;78.90
59961;DHT22;55902;-37.980;-63.602;2022-08-14T09:54:03;13.80;78.70
59961;DHT22;55902;-37.980;-63.602;2022-08-14T09:56:49;13.70;79.00
59961;DHT22;55902;-37.980;-63.602;2022-08-14T09:59:19;13.60;79.20
59961;DHT22;55902;-37.980;-63.602;2022-08-14T10:01:50;13.50;78.70
59961;DHT22;55902;-37.980;-63.602;2022-08-14T10:04:26;13.50;79.00
59961;DHT22;55902;-37.980;-63.602;2022-08-14T10:06:54;13.40;79.20
59961;DHT22;55902;-37.980;-63.602;2022-08-14T10:09:25;13.30;78.20
59961;DHT22;55902;-37.980;-63.602;2022-08-14T10:11:57;13.30;78.70
59961;DHT22;55902;-37.980;-63.602;2022-08-14T10:24:39;12.90;79.50
59961;DHT22;55902;-37.980;-63.602;2022-08-14T10:27:16;12.80;79.50
59961;DHT22;55902;-37.980;-63.602;2022-08-14T10:29:51;12.80;79.90
59961;DHT22;55902;-37.980;-63.602;2022-08-14T10:32:19;12.70;79.90
59961;DHT22;55902;-37.980;-63.602;2022-08-14T10:35:06;12.60;80.20
59961;DHT22;55902;-37.980;-63.602;2022-08-14T10:37:43;12.60;80.40
59961;DHT22;55902;-37.980;-63.602;2022-08-14T10:40:29;12.50;80.70
59961;DHT22;55902;-37.980;-63.602;2022-08-14T10:42:56;12.40;80.80
59961;DHT22;55902;-37.980;-63.602;2022-08-14T10:45:32;12.40;80.80
59961;DHT22;55902;-37.980;-63.602;2022-08-14T10:48:00;12.40;80.60
59961;DHT22;55902;-37.980;-63.602;2022-08-14T10:50:35;12.30;80.80
59961;DHT22;55902;-37.980;-63.602;2022-08-14T10:53:07;12.20;81.10
59961;DHT22;55902;-37.980;-63.602;2022-08-14T10:55:36;12.20;81.60
59961;DHT22;55902;-37.980;-63.602;2022-08-14T10:58:09;12.10;81.90
59961;DHT22;55902;-37.980;-63.602;2022-08-14T11:00:38;12.10;82.10
59961;DHT22;55902;-37.980;-63.602;2022-08-14T11:03:11;12.10;82.40
59961;DHT22;55902;-37.980;-63.602;2022-08-14T11:05:51;12.10;82.40
59961;DHT22;55902;-37.980;-63.602;2022-08-14T11:08:30;12.10;82.50
59961;DHT22;55902;-37.980;-63.602;2022-08-14T11:10:58;12.00;82.50
59961;DHT22;55902;-37.980;-63.602;2022-08-14T11:13:29;12.00;82.60
59961;DHT22;55902;-37.980;-63.602;2022-08-14T11:15:58;12.00;82.70
59961;DHT22;55902;-37.980;-63.602;2022-08-14T11:18:31;12.00;82.70
59961;DHT22;55902;-37.980;-63.602;2022-08-14T11:21:01;12.00;82.70
59961;DHT22;55902;-37.980;-63.602;2022-08-14T11:23:35;12.10;82.50
59961;DHT22;55902;-37.980;-63.602;2022-08-14T11:26:04;12.00;82.50
59961;DHT22;55902;-37.980;-63.602;2022-08-14T11:28:38;12.10;82.60
59961;DHT22;55902;-37.980;-63.602;2022-08-14T11:31:08;12.10;82.50
59961;DHT22;55902;-37.980;-63.602;2022-08-14T11:33:38;12.10;82.40
59961;DHT22;55902;-37.980;-63.602;2022-08-14T11:36:08;12.20;82.50
59961;DHT22;55902;-37.980;-63.602;2022-08-14T11:38:44;12.20;82.60
59961;DHT22;55902;-37.980;-63.602;2022-08-14T11:41:12;12.30;82.10
59961;DHT22;55902;-37.980;-63.602;2022-08-14T11:43:48;12.30;81.90
59961;DHT22;55902;-37.980;-63.602;2022-08-14T11:46:21;12.30;81.70
59961;DHT22;55902;-37.980;-63.602;2022-08-14T11:48:50;12.30;81.70
59961;DHT22;55902;-37.980;-63.602;2022-08-14T11:51:23;12.30;81.90
59961;DHT22;55902;-37.980;-63.602;2022-08-14T11:54:01;12.40;81.60
59961;DHT22;55902;-37.980;-63.602;2022-08-14T11:56:38;12.40;81.80
59961;DHT22;55902;-37.980;-63.602;2022-08-14T11:59:15;12.50;82.10
59961;DHT22;55902;-37.980;-63.602;2022-08-14T12:01:47;12.70;82.20
59961;DHT22;55902;-37.980;-63.602;2022-08-14T12:04:17;12.80;82.30
59961;DHT22;55902;-37.980;-63.602;2022-08-14T12:06:54;13.10;82.80
59961;DHT22;55902;-37.980;-63.602;2022-08-14T12:09:29;13.50;82.80
59961;DHT22;55902;-37.980;-63.602;2022-08-14T12:11:56;13.90;82.10
59961;DHT22;55902;-37.980;-63.602;2022-08-14T12:14:28;14.20;82.30
59961;DHT22;55902;-37.980;-63.602;2022-08-14T12:17:05;14.70;81.60
59961;DHT22;55902;-37.980;-63.602;2022-08-14T12:19:50;15.30;80.30
59961;DHT22;55902;-37.980;-63.602;2022-08-14T12:22:30;15.80;80.10
59961;DHT22;55902;-37.980;-63.602;2022-08-14T12:24:58;16.20;80.20
59961;DHT22;55902;-37.980;-63.602;2022-08-14T12:27:42;16.60;79.50
59961;DHT22;55902;-37.980;-63.602;2022-08-14T12:30:12;17.10;79.20
59961;DHT22;55902;-37.980;-63.602;2022-08-14T12:32:44;17.50;78.50
59961;DHT22;55902;-37.980;-63.602;2022-08-14T12:35:13;17.90;77.90
59961;DHT22;55902;-37.980;-63.602;2022-08-14T12:37:49;18.30;75.20
59961;DHT22;55902;-37.980;-63.602;2022-08-14T12:40:18;18.50;72.80
59961;DHT22;55902;-37.980;-63.602;2022-08-14T12:42:49;18.70;72.90
59961;DHT22;55902;-37.980;-63.602;2022-08-14T12:45:27;18.90;74.10
59961;DHT22;55902;-37.980;-63.602;2022-08-14T12:47:59;19.10;73.30
59961;DHT22;55902;-37.980;-63.602;2022-08-14T12:50:40;19.30;72.30
59961;DHT22;55902;-37.980;-63.602;2022-08-14T12:53:08;19.60;72.20
59961;DHT22;55902;-37.980;-63.602;2022-08-14T12:55:36;19.90;68.80
59961;DHT22;55902;-37.980;-63.602;2022-08-14T12:58:05;19.90;66.20
59961;DHT22;55902;-37.980;-63.602;2022-08-14T13:00:35;19.90;69.00
59961;DHT22;55902;-37.980;-63.602;2022-08-14T13:03:07;19.90;69.80
59961;DHT22;55902;-37.980;-63.602;2022-08-14T13:05:34;20.10;64.30
59961;DHT22;55902;-37.980;-63.602;2022-08-14T13:08:04;20.00;67.00
59961;DHT22;55902;-37.980;-63.602;2022-08-14T13:10:33;20.00;69.40
59961;DHT22;55902;-37.980;-63.602;2022-08-14T13:13:03;20.30;66.30
59961;DHT22;55902;-37.980;-63.602;2022-08-14T13:15:35;20.60;64.00
59961;DHT22;55902;-37.980;-63.602;2022-08-14T13:18:03;20.80;64.30
59961;DHT22;55902;-37.980;-63.602;2022-08-14T13:20:34;21.10;63.90
59961;DHT22;55902;-37.980;-63.602;2022-08-14T13:23:01;21.40;60.50
59961;DHT22;55902;-37.980;-63.602;2022-08-14T13:25:28;21.60;61.80
59961;DHT22;55902;-37.980;-63.602;2022-08-14T13:27:57;21.70;62.10
59961;DHT22;55902;-37.980;-63.602;2022-08-14T13:30:31;21.90;58.60
59961;DHT22;55902;-37.980;-63.602;2022-08-14T13:32:58;22.00;58.40
59961;DHT22;55902;-37.980;-63.602;2022-08-14T13:35:31;22.00;57.10
59961;DHT22;55902;-37.980;-63.602;2022-08-14T13:37:57;22.10;57.70
59961;DHT22;55902;-37.980;-63.602;2022-08-14T13:40:24;22.40;57.20
59961;DHT22;55902;-37.980;-63.602;2022-08-14T13:42:55;22.60;53.70
59961;DHT22;55902;-37.980;-63.602;2022-08-14T13:45:26;22.60;51.20
59961;DHT22;55902;-37.980;-63.602;2022-08-14T13:47:55;22.50;51.80
59961;DHT22;55902;-37.980;-63.602;2022-08-14T13:50:27;22.40;52.00
59961;DHT22;55902;-37.980;-63.602;2022-08-14T13:52:56;22.40;52.80
59961;DHT22;55902;-37.980;-63.602;2022-08-14T13:55:28;22.50;52.20
59961;DHT22;55902;-37.980;-63.602;2022-08-14T13:58:05;22.50;48.70
59961;DHT22;55902;-37.980;-63.602;2022-08-14T14:00:34;22.50;49.00
59961;DHT22;55902;-37.980;-63.602;2022-08-14T14:03:08;22.40;49.60
59961;DHT22;55902;-37.980;-63.602;2022-08-14T14:05:38;22.60;47.10
59961;DHT22;55902;-37.980;-63.602;2022-08-14T14:08:07;22.60;49.40
59961;DHT22;55902;-37.980;-63.602;2022-08-14T14:10:37;22.90;48.40
59961;DHT22;55902;-37.980;-63.602;2022-08-14T14:13:08;23.20;45.30
59961;DHT22;55902;-37.980;-63.602;2022-08-14T14:15:38;23.30;46.80
59961;DHT22;55902;-37.980;-63.602;2022-08-14T14:18:06;23.50;46.60
59961;DHT22;55902;-37.980;-63.602;2022-08-14T14:20:37;23.80;40.50
59961;DHT22;55902;-37.980;-63.602;2022-08-14T14:23:04;23.60;38.40
59961;DHT22;55902;-37.980;-63.602;2022-08-14T14:25:40;23.50;37.10
59961;DHT22;55902;-37.980;-63.602;2022-08-14T14:28:08;23.30;39.50
59961;DHT22;55902;-37.980;-63.602;2022-08-14T14:30:36;23.40;38.70
59961;DHT22;55902;-37.980;-63.602;2022-08-14T14:33:12;23.50;37.10
59961;DHT22;55902;-37.980;-63.602;2022-08-14T14:35:44;23.60;38.10
59961;DHT22;55902;-37.980;-63.602;2022-08-14T14:38:16;23.70;37.50
59961;DHT22;55902;-37.980;-63.602;2022-08-14T14:40:46;23.70;38.20
59961;DHT22;55902;-37.980;-63.602;2022-08-14T14:43:14;23.90;38.20
59961;DHT22;55902;-37.980;-63.602;2022-08-14T14:45:48;24.20;38.50
59961;DHT22;55902;-37.980;-63.602;2022-08-14T14:48:16;24.60;38.60
59961;DHT22;55902;-37.980;-63.602;2022-08-14T14:50:48;24.80;35.20
59961;DHT22;55902;-37.980;-63.602;2022-08-14T14:53:19;24.70;35.50
59961;DHT22;55902;-37.980;-63.602;2022-08-14T14:55:52;24.70;38.10
59961;DHT22;55902;-37.980;-63.602;2022-08-14T14:58:23;24.90;36.90
59961;DHT22;55902;-37.980;-63.602;2022-08-14T15:00:54;25.00;34.80
59961;DHT22;55902;-37.980;-63.602;2022-08-14T15:03:25;25.10;33.20
59961;DHT22;55902;-37.980;-63.602;2022-08-14T15:05:52;25.10;36.30
59961;DHT22;55902;-37.980;-63.602;2022-08-14T15:08:20;25.30;33.90
59961;DHT22;55902;-37.980;-63.602;2022-08-14T15:10:51;25.50;33.90
59961;DHT22;55902;-37.980;-63.602;2022-08-14T15:13:19;25.60;34.90
59961;DHT22;55902;-37.980;-63.602;2022-08-14T15:15:46;25.80;35.50
59961;DHT22;55902;-37.980;-63.602;2022-08-14T15:18:16;26.00;34.90
59961;DHT22;55902;-37.980;-63.602;2022-08-14T15:20:46;26.10;33.20
59961;DHT22;55902;-37.980;-63.602;2022-08-14T15:23:16;26.00;33.80
59961;DHT22;55902;-37.980;-63.602;2022-08-14T15:25:43;25.80;33.80
59961;DHT22;55902;-37.980;-63.602;2022-08-14T15:28:11;25.80;34.60
59961;DHT22;55902;-37.980;-63.602;2022-08-14T15:30:43;26.00;33.80
59961;DHT22;55902;-37.980;-63.602;2022-08-14T15:33:13;26.20;32.60
59961;DHT22;55902;-37.980;-63.602;2022-08-14T15:35:44;26.40;32.50